Time;durP1;ratioP1;P1;durP2;ratioP2;P2;SDS_P1;SDS_P2;PMS_P1;PMS_P2;Temp;Humidity;BMP_temperature;BMP_pressure;BME280_temperature;BME280_humidity;BME280_pressure;Samples;Min_cycle;Max_cycle;Signal;HPM_P1;HPM_P2
2023/01/18 00:00:31;;;;;;;6.22;2.03;;;;;;;;;;2547859;23;19993;-93
2023/01/18 00:01:42;;;;;;;7.20;2.03;;;;;;;;;;2497028;23;20091;-95
2023/01/18 00:02:45;;;;;;;7.65;1.98;;;;;;;;;;2483939;23;20310;-94
2023/01/18 00:03:46;;;;;;;11.70;3.60;;;;;;;;;;2536855;23;19990;-94
2023/01/18 00:05:27;;;;;;;;;;;;;;;;;;;;;
2023/01/18 00:06:31;;;;;;;8.95;2.17;;;;;;;;;;2524904;23;19991;-92
2023/01/18 00:07:37;;;;;;;13.75;2.42;;;;;;;;;;2550891;23;20013;-93
2023/01/18 00:08:41;;;;;;;4.55;2.05;;;;;;;;;;2547405;23;19998;-95
2023/01/18 00:09:55;;;;;;;7.93;2.60;;;;;;;;;;2485954;23;19996;-95
2023/01/18 00:11:14;;;;;;;9.60;2.33;;;;;;;;;;2503280;23;20000;-92
2023/01/18 00:12:24;;;;;;;5.20;1.98;;;;;;;;;;2553212;23;19998;-93
2023/01/18 00:13:27;;;;;;;3.67;2.00;;;;;;;;;;2551075;23;19997;-94
2023/01/18 00:14:28;;;;;;;7.15;2.03;;;;;;;;;;2534776;23;20009;-93
2023/01/18 00:15:30;;;;;;;6.25;2.03;;;;;;;;;;2533929;23;20053;-94
2023/01/18 00:16:38;;;;;;;13.05;2.33;;;;;;;;;;2544360;23;20489;-92
2023/01/18 00:17:50;;;;;;;11.73;2.50;;;;;;;;;;2500682;23;19991;-93
2023/01/18 00:18:55;;;;;;;9.07;2.50;;;;;;;;;;2547169;23;19997;-93
2023/01/18 00:19:56;;;;;;;8.68;2.20;;;;;;;;;;2546245;23;20017;-92
2023/01/18 00:21:04;;;;;;;10.27;2.20;;;;;;;;;;2560260;23;20001;-93
2023/01/18 00:22:05;;;;;;;6.13;2.70;;;;;;;;;;2131571;23;10000740;-94
2023/01/18 00:23:05;;;;;;;12.30;2.80;;;;;;;;;;2545941;23;19998;-93
2023/01/18 00:24:09;;;;;;;7.28;2.92;;;;;;;;;;2547144;23;19997;-92
2023/01/18 00:25:10;;;;;;;9.55;2.00;;;;;;;;;;2562854;23;20065;-92
2023/01/18 00:26:11;;;;;;;7.88;2.33;;;;;;;;;;2576653;23;20003;-91
2023/01/18 00:27:12;;;;;;;7.28;1.40;;;;;;;;;;2577042;23;20067;-91
2023/01/18 00:28:12;;;;;;;12.07;2.65;;;;;;;;;;2577885;23;19997;-91
2023/01/18 00:29:13;;;;;;;5.03;2.22;;;;;;;;;;2581562;23;20000;-92
2023/01/18 00:30:19;;;;;;;14.35;2.35;;;;;;;;;;2584985;23;19988;-93
2023/01/18 00:31:20;;;;;;;6.47;2.10;;;;;;;;;;2584446;23;19996;-89
2023/01/18 00:32:21;;;;;;;7.82;2.33;;;;;;;;;;2577868;23;20110;-94
2023/01/18 00:33:21;;;;;;;10.40;1.98;;;;;;;;;;2573421;23;20084;-92
2023/01/18 00:34:22;;;;;;;5.85;1.70;;;;;;;;;;2561897;23;19997;-92
2023/01/18 00:39:19;;;;;;;8.52;2.20;;;;;;;;;;2572400;23;20102;-93
2023/01/18 00:40:21;;;;;;;9.23;2.67;;;;;;;;;;2560371;23;20345;-94
2023/01/18 00:41:22;;;;;;;8.82;2.35;;;;;;;;;;2550967;23;19997;-93
2023/01/18 00:43:44;;;;;;;7.43;2.00;;;;;;;;;;2576714;23;19992;-92
2023/01/18 00:44:44;;;;;;;10.48;2.35;;;;;;;;;;2576403;23;19989;-93
2023/01/18 00:45:45;;;;;;;14.43;2.88;;;;;;;;;;2572364;23;20018;-93
2023/01/18 00:46:48;;;;;;;7.95;2.05;;;;;;;;;;2559078;23;20100;-94
2023/01/18 00:47:49;;;;;;;13.18;3.05;;;;;;;;;;2547687;23;20377;-93
2023/01/18 00:48:57;;;;;;;13.30;2.53;;;;;;;;;;2559961;23;20461;-93
2023/01/18 00:50:00;;;;;;;11.95;2.38;;;;;;;;;;2560242;23;20088;-92
2023/01/18 00:51:04;;;;;;;10.43;2.28;;;;;;;;;;2564278;23;19993;-94
2023/01/18 00:52:05;;;;;;;11.50;2.38;;;;;;;;;;2559072;23;20001;-92
2023/01/18 00:53:13;;;;;;;15.35;2.85;;;;;;;;;;2559073;23;20004;-93
2023/01/18 00:54:13;;;;;;;8.30;2.63;;;;;;;;;;2559177;23;20096;-94
2023/01/18 00:55:15;;;;;;;6.05;1.75;;;;;;;;;;2558840;23;20061;-93
2023/01/18 00:56:18;;;;;;;8.70;2.70;;;;;;;;;;2558371;23;20035;-93
2023/01/18 00:57:19;;;;;;;13.20;2.63;;;;;;;;;;2558748;23;20001;-92
2023/01/18 00:58:22;;;;;;;11.02;2.15;;;;;;;;;;2560946;23;19997;-91
2023/01/18 00:59:31;;;;;;;9.82;2.30;;;;;;;;;;2568613;23;20041;-91
2023/01/18 01:00:32;;;;;;;8.65;2.08;;;;;;;;;;2564661;23;20434;-93
2023/01/18 01:01:34;;;;;;;8.40;2.55;;;;;;;;;;2559173;23;19997;-93
2023/01/18 01:06:48;;;;;;;14.55;3.25;;;;;;;;;;2576699;23;19993;-93
2023/01/18 01:07:49;;;;;;;13.73;2.63;;;;;;;;;;2559675;23;19997;-94
2023/01/18 01:08:52;;;;;;;8.02;2.88;;;;;;;;;;2546829;23;20060;-92
2023/01/18 01:10:19;;;;;;;7.75;2.22;;;;;;;;;;2547229;23;20084;-91
2023/01/18 01:11:19;;;;;;;11.98;2.40;;;;;;;;;;2539302;23;20006;-91
2023/01/18 01:26:02;;;;;;;15.75;3.58;;;;;;;;;;2575812;23;19993;-93
2023/01/18 01:27:03;;;;;;;6.28;1.95;;;;;;;;;;2570162;23;19997;-92
2023/01/18 01:28:03;;;;;;;15.43;2.53;;;;;;;;;;2575050;23;19993;-90
2023/01/18 01:29:04;;;;;;;8.95;2.70;;;;;;;;;;2563635;23;20032;-91
2023/01/18 01:30:08;;;;;;;12.38;2.80;;;;;;;;;;2570155;23;20057;-90
2023/01/18 01:31:11;;;;;;;13.50;2.83;;;;;;;;;;2573489;23;20451;-91
2023/01/18 01:32:12;;;;;;;7.45;2.13;;;;;;;;;;2558205;23;20011;-92
2023/01/18 01:33:18;;;;;;;7.10;2.15;;;;;;;;;;2558730;23;20000;-91
2023/01/18 01:34:28;;;;;;;14.05;2.60;;;;;;;;;;2564233;23;20001;-94
2023/01/18 01:35:29;;;;;;;17.75;4.72;;;;;;;;;;2562683;23;20492;-92
2023/01/18 01:37:25;;;;;;;11.55;2.50;;;;;;;;;;2548733;23;20001;-92
2023/01/18 01:38:26;;;;;;;10.05;2.67;;;;;;;;;;2541169;23;20099;-93
2023/01/18 01:39:27;;;;;;;11.93;2.47;;;;;;;;;;2562390;23;20000;-91
2023/01/18 01:40:27;;;;;;;12.82;3.50;;;;;;;;;;2558266;23;20001;-91
2023/01/18 01:41:31;;;;;;;15.40;2.75;;;;;;;;;;2572628;23;20019;-92
2023/01/18 01:45:23;;;;;;;;;;;;;;;;;;;;;
2023/01/18 01:47:11;;;;;;;10.20;2.20;;;;;;;;;;2582484;23;20072;-93
2023/01/18 01:56:24;;;;;;;14.32;2.65;;;;;;;;;;2525695;23;20034;-94
2023/01/18 01:58:05;;;;;;;6.30;1.73;;;;;;;;;;2509065;23;20352;-91
2023/01/18 01:59:43;;;;;;;6.50;2.10;;;;;;;;;;1680114;23;10001660;-91
2023/01/18 02:00:56;;;;;;;13.70;2.45;;;;;;;;;;2485190;23;19995;-91
2023/01/18 02:01:57;;;;;;;15.52;3.97;;;;;;;;;;2579349;23;20325;-91
2023/01/18 02:03:02;;;;;;;11.23;2.88;;;;;;;;;;2572879;23;20005;-92
2023/01/18 02:04:03;;;;;;;10.00;2.72;;;;;;;;;;2573677;23;20143;-91
2023/01/18 02:05:05;;;;;;;11.93;2.33;;;;;;;;;;2583625;23;19996;-92
2023/01/18 02:06:23;;;;;;;13.30;2.42;;;;;;;;;;2577439;23;19992;-90
2023/01/18 02:07:27;;;;;;;8.13;2.05;;;;;;;;;;2577840;23;20019;-91
2023/01/18 02:08:28;;;;;;;12.52;1.88;;;;;;;;;;1715251;23;10001231;-92
2023/01/18 02:09:28;;;;;;;14.48;3.05;;;;;;;;;;2557562;23;20013;-93
2023/01/18 02:10:29;;;;;;;19.33;3.50;;;;;;;;;;2557253;23;19997;-91
2023/01/18 02:11:30;;;;;;;13.18;3.50;;;;;;;;;;2557404;23;20118;-92
2023/01/18 02:12:32;;;;;;;11.35;2.47;;;;;;;;;;2556980;23;19993;-92
2023/01/18 02:13:32;;;;;;;14.43;2.63;;;;;;;;;;2561548;23;20311;-91
2023/01/18 02:14:33;;;;;;;11.75;2.03;;;;;;;;;;2556841;23;19996;-92
2023/01/18 02:15:43;;;;;;;11.07;2.33;;;;;;;;;;2556744;23;20433;-92
2023/01/18 02:17:05;;;;;;;9.65;2.15;;;;;;;;;;2562930;23;20024;-92
2023/01/18 02:18:25;;;;;;;16.33;2.38;;;;;;;;;;2556898;23;20001;-92
2023/01/18 02:20:03;;;;;;;9.25;2.65;;;;;;;;;;2556369;23;19993;-92
2023/01/18 02:21:14;;;;;;;20.40;2.92;;;;;;;;;;2568873;23;19999;-92
2023/01/18 02:22:17;;;;;;;;;;;;;;;;;;2557212;23;20198;-92
2023/01/18 02:23:29;;;;;;;12.32;2.63;;;;;;;;;;2557330;23;19915;-92
2023/01/18 02:24:59;;;;;;;15.60;2.47;;;;;;;;;;2557047;23;20024;-93
2023/01/18 02:26:21;;;;;;;15.13;2.53;;;;;;;;;;2556688;23;20025;-92
2023/01/18 02:27:30;;;;;;;17.85;2.78;;;;;;;;;;2565559;23;20308;-92
2023/01/18 02:28:40;;;;;;;13.27;2.60;;;;;;;;;;2574156;23;20495;-92
2023/01/18 02:29:50;;;;;;;12.30;3.40;;;;;;;;;;2573618;23;20060;-92
2023/01/18 02:31:12;;;;;;;13.10;2.33;;;;;;;;;;2574077;23;20393;-92
2023/01/18 02:32:26;;;;;;;10.48;2.63;;;;;;;;;;2574357;23;20000;-92
2023/01/18 02:33:33;;;;;;;11.73;2.33;;;;;;;;;;2573886;23;20314;-93
2023/01/18 02:34:46;;;;;;;10.93;2.15;;;;;;;;;;2556739;23;20374;-91
2023/01/18 02:35:55;;;;;;;15.32;2.58;;;;;;;;;;2563696;23;20000;-91
2023/01/18 02:37:17;;;;;;;8.75;2.20;;;;;;;;;;2574476;23;20076;-92
2023/01/18 02:38:28;;;;;;;11.25;3.00;;;;;;;;;;2568868;23;20023;-92
2023/01/18 02:39:52;;;;;;;10.10;2.38;;;;;;;;;;2556982;23;20001;-91
2023/01/18 02:41:04;;;;;;;12.30;2.38;;;;;;;;;;2561107;23;19996;-91
2023/01/18 02:46:46;;;;;;;16.73;3.53;;;;;;;;;;2574130;23;20000;-90
2023/01/18 02:47:50;;;;;;;15.82;2.53;;;;;;;;;;2573834;23;19993;-90
2023/01/18 02:48:51;;;;;;;9.77;2.75;;;;;;;;;;2556405;23;20007;-91
2023/01/18 02:49:51;;;;;;;13.60;2.83;;;;;;;;;;2544155;23;20000;-92
2023/01/18 02:50:52;;;;;;;6.30;2.25;;;;;;;;;;2560823;23;20023;-91
2023/01/18 02:52:12;;;;;;;;;;;;;;;;;;;;;
2023/01/18 02:53:24;;;;;;;9.80;2.10;;;;;;;;;;2574320;23;20382;-91
2023/01/18 02:54:24;;;;;;;8.88;2.25;;;;;;;;;;2561029;23;20001;-91
2023/01/18 02:55:30;;;;;;;11.52;2.05;;;;;;;;;;2561344;23;20141;-92
2023/01/18 02:56:41;;;;;;;8.57;2.45;;;;;;;;;;2559511;23;20446;-93
2023/01/18 02:57:42;;;;;;;15.07;3.00;;;;;;;;;;2566539;23;19993;-94
2023/01/18 02:58:49;;;;;;;13.68;2.40;;;;;;;;;;2557220;23;20021;-93
2023/01/18 02:59:53;;;;;;;9.68;1.88;;;;;;;;;;2562925;23;19993;-93
2023/01/18 03:01:03;;;;;;;6.68;2.03;;;;;;;;;;2557023;23;20093;-92
2023/01/18 03:02:15;;;;;;;13.05;3.08;;;;;;;;;;2563454;23;20074;-94
2023/01/18 03:03:19;;;;;;;11.88;2.50;;;;;;;;;;2569472;23;19992;-93
2023/01/18 03:04:31;;;;;;;6.13;1.77;;;;;;;;;;2556916;23;20001;-94
2023/01/18 03:05:33;;;;;;;10.88;2.20;;;;;;;;;;2547051;23;20370;-93
2023/01/18 03:06:34;;;;;;;14.63;2.20;;;;;;;;;;2556987;23;20426;-92
2023/01/18 03:07:42;;;;;;;7.35;2.22;;;;;;;;;;2556891;23;20012;-92
2023/01/18 03:08:48;;;;;;;5.30;2.03;;;;;;;;;;2558064;23;20000;-93
2023/01/18 03:09:49;;;;;;;10.07;1.92;;;;;;;;;;2556905;23;20005;-94
2023/01/18 03:11:00;;;;;;;12.93;3.08;;;;;;;;;;2560918;23;20500;-94
2023/01/18 03:12:05;;;;;;;;;;;;;;;;;;2574885;23;19992;-92
2023/01/18 03:13:15;;;;;;;7.65;1.80;;;;;;;;;;2569364;23;19906;-93
2023/01/18 03:14:18;;;;;;;16.83;3.72;;;;;;;;;;2557138;23;20004;-93
2023/01/18 03:15:36;;;;;;;12.30;2.60;;;;;;;;;;2557461;23;20067;-92
2023/01/18 03:17:24;;;;;;;9.35;2.33;;;;;;;;;;2556434;23;20060;-91
2023/01/18 03:19:00;;;;;;;8.57;1.88;;;;;;;;;;2556414;23;20045;-94
2023/01/18 03:21:14;;;;;;;10.30;1.85;;;;;;;;;;2570179;23;19997;-94
2023/01/18 03:22:14;;;;;;;11.80;3.30;;;;;;;;;;2568910;23;20005;-93
2023/01/18 03:23:37;;;;;;;9.45;2.50;;;;;;;;;;2572499;23;20162;-91
2023/01/18 03:24:40;;;;;;;8.23;1.95;;;;;;;;;;2142580;23;10001611;-90
2023/01/18 03:25:49;;;;;;;8.93;2.15;;;;;;;;;;2572642;23;20382;-93
2023/01/18 03:26:53;;;;;;;11.00;2.85;;;;;;;;;;2572528;23;20441;-91
2023/01/18 03:33:47;;;;;;;12.65;3.65;;;;;;;;;;2140931;23;10001195;-92
2023/01/18 03:35:02;;;;;;;12.32;2.33;;;;;;;;;;2574548;23;19988;-92
2023/01/18 03:36:08;;;;;;;8.65;2.28;;;;;;;;;;2573937;23;20060;-93
2023/01/18 03:37:16;;;;;;;10.55;2.42;;;;;;;;;;2582073;23;20305;-94
2023/01/18 03:38:20;;;;;;;13.50;2.72;;;;;;;;;;2559203;23;20005;-93
2023/01/18 03:39:27;;;;;;;14.15;2.80;;;;;;;;;;2534728;23;20001;-95
2023/01/18 03:40:29;;;;;;;14.68;2.60;;;;;;;;;;2537031;23;19998;-94
2023/01/18 03:41:40;;;;;;;8.00;2.13;;;;;;;;;;2545595;23;20088;-92
2023/01/18 03:42:57;;;;;;;9.73;2.47;;;;;;;;;;2551939;23;20072;-94
2023/01/18 03:44:06;;;;;;;14.35;3.08;;;;;;;;;;2550121;23;19997;-93
2023/01/18 03:45:19;;;;;;;15.98;2.63;;;;;;;;;;2537343;23;23767;-93
2023/01/18 03:46:23;;;;;;;14.23;2.90;;;;;;;;;;2538414;23;20022;-93
2023/01/18 03:47:24;;;;;;;8.32;2.05;;;;;;;;;;2557775;23;19997;-92
2023/01/18 03:48:25;;;;;;;5.97;1.58;;;;;;;;;;2573737;23;20020;-93
2023/01/18 03:49:27;;;;;;;9.38;3.20;;;;;;;;;;2563066;23;20378;-93
2023/01/18 03:50:49;;;;;;;8.73;2.40;;;;;;;;;;2552141;23;20052;-92
2023/01/18 03:52:08;;;;;;;16.25;3.05;;;;;;;;;;2556821;23;20061;-93
2023/01/18 03:53:54;;;;;;;8.32;2.80;;;;;;;;;;2576269;23;20027;-92
2023/01/18 03:57:18;;;;;;;23.83;3.22;;;;;;;;;;2552031;23;20051;-93
2023/01/18 03:58:25;;;;;;;7.35;2.72;;;;;;;;;;2578385;23;19996;-92
2023/01/18 03:59:34;;;;;;;8.57;2.00;;;;;;;;;;2557221;23;20047;-93
2023/01/18 04:00:39;;;;;;;14.82;2.50;;;;;;;;;;2562702;23;20341;-93
2023/01/18 04:01:40;;;;;;;11.68;2.47;;;;;;;;;;2557149;23;20373;-93
2023/01/18 04:02:43;;;;;;;13.48;2.58;;;;;;;;;;2557391;23;19997;-93
2023/01/18 04:03:43;;;;;;;9.35;2.20;;;;;;;;;;2557327;23;19989;-93
2023/01/18 04:04:44;;;;;;;10.32;2.42;;;;;;;;;;2561093;23;19989;-93
2023/01/18 04:05:44;;;;;;;11.38;3.10;;;;;;;;;;2556840;23;20400;-93
2023/01/18 04:06:45;;;;;;;11.70;2.70;;;;;;;;;;2560818;23;20484;-94
2023/01/18 04:07:47;;;;;;;7.88;2.40;;;;;;;;;;2574349;23;19995;-93
2023/01/18 04:08:49;;;;;;;10.63;2.83;;;;;;;;;;2575071;23;19993;-93
2023/01/18 04:09:49;;;;;;;18.70;3.10;;;;;;;;;;2575068;23;20441;-93
2023/01/18 04:10:52;;;;;;;16.10;2.80;;;;;;;;;;2557657;23;20127;-94
2023/01/18 04:11:54;;;;;;;11.07;2.05;;;;;;;;;;2562340;23;19989;-93
2023/01/18 04:12:58;;;;;;;10.35;2.95;;;;;;;;;;2571342;23;20035;-93
2023/01/18 04:13:59;;;;;;;21.13;3.35;;;;;;;;;;2557540;23;20031;-91
2023/01/18 04:15:00;;;;;;;20.55;2.80;;;;;;;;;;2557509;23;19997;-93
2023/01/18 04:16:01;;;;;;;9.70;2.13;;;;;;;;;;2562142;23;20032;-91
2023/01/18 04:17:01;;;;;;;10.77;2.60;;;;;;;;;;2557642;23;20001;-93
2023/01/18 04:18:02;;;;;;;13.25;2.65;;;;;;;;;;2564061;23;20096;-92
2023/01/18 04:19:06;;;;;;;11.00;2.22;;;;;;;;;;2571645;23;19996;-93
2023/01/18 04:20:12;;;;;;;13.35;2.83;;;;;;;;;;2577073;23;20425;-91
2023/01/18 04:21:13;;;;;;;10.98;2.45;;;;;;;;;;2551801;23;20001;-94
2023/01/18 04:23:41;;;;;;;15.70;2.45;;;;;;;;;;2556042;23;19996;-93
2023/01/18 04:26:25;;;;;;;12.60;2.83;;;;;;;;;;2576898;23;20076;-94
2023/01/18 04:27:27;;;;;;;12.85;2.88;;;;;;;;;;2579945;23;20027;-93
2023/01/18 04:28:27;;;;;;;11.85;2.95;;;;;;;;;;2586433;23;20064;-92
2023/01/18 04:29:28;;;;;;;11.50;2.60;;;;;;;;;;2566422;23;20040;-93
2023/01/18 04:30:28;;;;;;;13.25;2.63;;;;;;;;;;2551813;23;20009;-92
2023/01/18 04:31:29;;;;;;;13.38;3.60;;;;;;;;;;2549661;23;19990;-93
2023/01/18 04:32:30;;;;;;;9.77;3.08;;;;;;;;;;2565361;23;19997;-93
2023/01/18 04:33:30;;;;;;;12.35;2.58;;;;;;;;;;2558784;23;20035;-93
2023/01/18 04:34:31;;;;;;;7.70;2.60;;;;;;;;;;2562342;23;20445;-92
2023/01/18 04:35:32;;;;;;;11.25;2.78;;;;;;;;;;2574756;23;20004;-93
2023/01/18 04:36:33;;;;;;;13.00;2.75;;;;;;;;;;2570418;23;20394;-92
2023/01/18 04:37:37;;;;;;;8.93;2.20;;;;;;;;;;2574271;23;19989;-93
2023/01/18 04:38:40;;;;;;;8.43;2.20;;;;;;;;;;2558098;23;19993;-93
2023/01/18 04:39:40;;;;;;;14.65;2.88;;;;;;;;;;2563019;23;20392;-93
2023/01/18 04:40:41;;;;;;;13.75;2.28;;;;;;;;;;2557821;23;19989;-94
2023/01/18 04:41:43;;;;;;;17.88;2.83;;;;;;;;;;2545891;23;20028;-94
2023/01/18 04:42:51;;;;;;;8.93;2.00;;;;;;;;;;2545708;23;20381;-94
2023/01/18 04:43:53;;;;;;;7.75;2.05;;;;;;;;;;2563760;23;20385;-95
2023/01/18 04:45:20;;;;;;;16.75;2.95;;;;;;;;;;2558149;23;20005;-95
2023/01/18 04:46:29;;;;;;;8.77;2.00;;;;;;;;;;2551478;23;20009;-94
2023/01/18 04:47:29;;;;;;;13.48;2.00;;;;;;;;;;2570826;23;19985;-94
2023/01/18 04:48:30;;;;;;;12.00;2.35;;;;;;;;;;2586387;23;19992;-95
2023/01/18 04:49:30;;;;;;;14.63;3.40;;;;;;;;;;2569497;23;19989;-95
2023/01/18 04:50:43;;;;;;;;;;;;;;;;;;;;;
2023/01/18 04:57:58;;;;;;;9.57;2.40;;;;;;;;;;2571922;23;20004;-96
2023/01/18 04:59:09;;;;;;;12.60;2.55;;;;;;;;;;2572507;23;20027;-95
2023/01/18 05:02:01;;;;;;;9.52;2.85;;;;;;;;;;2577342;23;20005;-93
2023/01/18 05:03:23;;;;;;;17.02;3.15;;;;;;;;;;2559617;23;20016;-93
2023/01/18 05:04:26;;;;;;;12.07;2.65;;;;;;;;;;2550724;23;20001;-94
2023/01/18 05:05:34;;;;;;;13.55;3.30;;;;;;;;;;2546287;23;20005;-94
2023/01/18 05:06:37;;;;;;;15.00;3.65;;;;;;;;;;2564026;23;19993;-94
2023/01/18 05:07:52;;;;;;;16.30;4.33;;;;;;;;;;2553554;23;10268010;-94
2023/01/18 05:13:32;;;;;;;12.52;3.50;;;;;;;;;;2523749;23;20103;-93
2023/01/18 05:14:50;;;;;;;;;;;;;;;;;;;;;
2023/01/18 05:15:53;;;;;;;13.80;2.78;;;;;;;;;;2540939;23;20394;-95
2023/01/18 05:16:54;;;;;;;15.57;3.60;;;;;;;;;;2573349;23;20005;-94
2023/01/18 05:18:04;;;;;;;16.50;3.78;;;;;;;;;;2557751;23;19993;-93
2023/01/18 05:19:07;;;;;;;14.30;3.38;;;;;;;;;;2547688;23;20260;-93
2023/01/18 05:20:41;;;;;;;16.17;2.75;;;;;;;;;;2545759;23;20001;-94
2023/01/18 05:22:08;;;;;;;16.73;2.88;;;;;;;;;;2567906;23;20007;-94
2023/01/18 05:31:28;;;;;;;7.88;2.47;;;;;;;;;;2535442;23;20006;-94
2023/01/18 05:32:59;;;;;;;;;;;;;;;;;;;;;
2023/01/18 05:34:07;;;;;;;12.68;2.88;;;;;;;;;;2574668;23;19999;-92
2023/01/18 05:37:50;;;;;;;9.52;2.47;;;;;;;;;;2512215;23;20003;-94
2023/01/18 05:38:53;;;;;;;23.23;3.42;;;;;;;;;;2488029;23;20028;-95
2023/01/18 05:39:54;;;;;;;10.48;2.67;;;;;;;;;;2496380;23;20062;-93
2023/01/18 05:40:54;;;;;;;16.88;3.22;;;;;;;;;;2508443;23;20058;-91
2023/01/18 05:41:56;;;;;;;13.48;3.42;;;;;;;;;;2484059;23;20019;-92
2023/01/18 05:42:59;;;;;;;22.63;3.60;;;;;;;;;;2561284;23;20032;-93
2023/01/18 05:44:04;;;;;;;16.63;2.83;;;;;;;;;;2557457;23;20071;-93
2023/01/18 05:45:06;;;;;;;11.80;2.25;;;;;;;;;;2545541;23;20010;-92
2023/01/18 05:46:06;;;;;;;12.98;2.58;;;;;;;;;;2561466;23;20369;-93
2023/01/18 05:47:07;;;;;;;18.20;3.38;;;;;;;;;;2574771;23;20016;-91
2023/01/18 05:48:10;;;;;;;16.80;3.97;;;;;;;;;;2559116;23;20023;-92
2023/01/18 05:49:10;;;;;;;10.02;3.13;;;;;;;;;;2552373;23;20017;-92
2023/01/18 05:50:11;;;;;;;9.68;2.63;;;;;;;;;;2553747;23;20037;-92
2023/01/18 05:51:12;;;;;;;13.10;2.50;;;;;;;;;;2572225;23;20020;-93
2023/01/18 05:52:21;;;;;;;16.42;3.90;;;;;;;;;;2564069;23;20012;-92
2023/01/18 05:53:22;;;;;;;15.07;3.03;;;;;;;;;;2559438;23;19997;-93
2023/01/18 05:54:22;;;;;;;14.52;2.75;;;;;;;;;;2569660;23;20001;-91
2023/01/18 05:55:51;;;;;;;10.05;2.67;;;;;;;;;;2544812;23;20064;-94
2023/01/18 06:01:34;;;;;;;11.65;2.10;;;;;;;;;;2495929;23;20000;-90
2023/01/18 06:04:35;;;;;;;16.45;3.13;;;;;;;;;;2482768;23;19999;-94
2023/01/18 06:05:35;;;;;;;14.57;2.65;;;;;;;;;;2511911;23;20072;-94
2023/01/18 06:06:36;;;;;;;12.60;2.85;;;;;;;;;;2522076;23;19999;-94
2023/01/18 06:07:36;;;;;;;14.10;3.20;;;;;;;;;;2497086;23;20031;-94
2023/01/18 06:08:37;;;;;;;15.85;3.92;;;;;;;;;;2497078;23;19999;-94
2023/01/18 06:09:37;;;;;;;9.32;2.65;;;;;;;;;;2552480;23;20072;-93
2023/01/18 06:10:38;;;;;;;14.55;3.20;;;;;;;;;;2574936;23;19992;-94
2023/01/18 06:11:39;;;;;;;13.85;3.08;;;;;;;;;;2569330;23;19999;-95
2023/01/18 06:12:40;;;;;;;17.80;3.10;;;;;;;;;;2569934;23;20084;-96
2023/01/18 06:13:43;;;;;;;10.80;3.30;;;;;;;;;;2562727;23;20008;-95
2023/01/18 06:14:43;;;;;;;13.13;3.95;;;;;;;;;;2555389;23;20032;-95
2023/01/18 06:19:57;;;;;;;23.83;7.00;;;;;;;;;;2536980;23;20010;-93
2023/01/18 06:20:59;;;;;;;19.70;6.30;;;;;;;;;;2532659;23;20486;-92
2023/01/18 06:22:00;;;;;;;28.08;8.82;;;;;;;;;;2566111;23;20185;-95
2023/01/18 06:23:00;;;;;;;25.45;7.82;;;;;;;;;;2557369;23;20063;-94
2023/01/18 06:24:00;;;;;;;22.92;8.18;;;;;;;;;;2557280;23;20048;-91
2023/01/18 06:26:36;;;;;;;;;;;;;;;;;;;;;
2023/01/18 06:27:07;;;;;;;14.50;4.57;;;;;;;;;;2555454;23;20023;-94
2023/01/18 06:28:08;;;;;;;14.30;3.05;;;;;;;;;;2557352;23;20024;-94
2023/01/18 06:29:08;;;;;;;15.32;4.13;;;;;;;;;;2544718;23;20084;-94
2023/01/18 06:30:10;;;;;;;16.17;4.32;;;;;;;;;;2557891;23;20001;-92
2023/01/18 06:31:10;;;;;;;14.85;3.90;;;;;;;;;;2544721;23;20007;-91
2023/01/18 06:32:10;;;;;;;14.45;4.03;;;;;;;;;;2544104;23;19997;-90
2023/01/18 06:33:11;;;;;;;16.42;4.60;;;;;;;;;;2560825;23;19993;-90
2023/01/18 06:34:11;;;;;;;18.70;3.47;;;;;;;;;;2556711;23;20334;-92
2023/01/18 06:35:12;;;;;;;9.85;2.95;;;;;;;;;;2542444;23;20500;-92
2023/01/18 06:36:13;;;;;;;12.30;3.60;;;;;;;;;;2560551;23;20028;-91
2023/01/18 06:37:13;;;;;;;16.02;4.68;;;;;;;;;;2556328;23;20501;-90
2023/01/18 06:38:16;;;;;;;13.68;3.38;;;;;;;;;;2544122;23;20072;-92
2023/01/18 06:39:19;;;;;;;17.10;4.18;;;;;;;;;;2543685;23;20086;-91
2023/01/18 06:40:20;;;;;;;12.32;3.53;;;;;;;;;;2548148;23;19997;-91
2023/01/18 06:41:23;;;;;;;10.63;2.73;;;;;;;;;;2122214;23;10247513;-90
2023/01/18 06:42:23;;;;;;;8.93;3.42;;;;;;;;;;2559671;23;20786;-93
2023/01/18 06:43:24;;;;;;;10.90;3.13;;;;;;;;;;2545460;23;20001;-94
2023/01/18 06:44:24;;;;;;;13.20;5.70;;;;;;;;;;2545983;23;20052;-94
2023/01/18 06:45:25;;;;;;;10.30;3.15;;;;;;;;;;2547188;23;20002;-93
2023/01/18 06:46:26;;;;;;;22.50;3.88;;;;;;;;;;2559133;23;19996;-93
2023/01/18 06:47:26;;;;;;;23.02;5.30;;;;;;;;;;2570347;23;20404;-93
2023/01/18 06:48:28;;;;;;;14.30;5.68;;;;;;;;;;2546655;23;20450;-95
2023/01/18 06:49:29;;;;;;;15.93;4.82;;;;;;;;;;2558931;23;20531;-95
2023/01/18 06:50:30;;;;;;;14.40;3.63;;;;;;;;;;2558260;23;19997;-95
2023/01/18 06:51:36;;;;;;;18.60;4.78;;;;;;;;;;2557652;23;20100;-94
2023/01/18 06:52:36;;;;;;;10.85;3.13;;;;;;;;;;2546450;23;20080;-93
2023/01/18 06:53:37;;;;;;;17.17;3.13;;;;;;;;;;2560973;23;20373;-92
2023/01/18 06:54:38;;;;;;;17.05;3.88;;;;;;;;;;2557395;23;20012;-93
2023/01/18 06:55:38;;;;;;;18.40;4.38;;;;;;;;;;2561618;23;20346;-92
2023/01/18 06:56:39;;;;;;;15.20;3.70;;;;;;;;;;2556945;23;19997;-95
2023/01/18 06:57:40;;;;;;;16.17;3.40;;;;;;;;;;2556563;23;19997;-93
2023/01/18 06:58:40;;;;;;;21.35;4.30;;;;;;;;;;2557101;23;19989;-94
2023/01/18 06:59:41;;;;;;;15.50;3.95;;;;;;;;;;2545171;23;19989;-93
2023/01/18 07:00:44;;;;;;;16.70;4.18;;;;;;;;;;2545929;23;20025;-95
2023/01/18 07:01:44;;;;;;;17.75;3.25;;;;;;;;;;2545722;23;20442;-93
2023/01/18 07:02:45;;;;;;;15.60;3.63;;;;;;;;;;2544934;23;19998;-92
2023/01/18 07:03:45;;;;;;;11.02;2.95;;;;;;;;;;2557797;23;19989;-92
2023/01/18 07:04:46;;;;;;;22.38;3.50;;;;;;;;;;2561539;23;20001;-92
2023/01/18 07:05:47;;;;;;;13.32;3.25;;;;;;;;;;2557508;23;19997;-91
2023/01/18 07:06:47;;;;;;;18.02;4.05;;;;;;;;;;2547414;23;19990;-92
2023/01/18 07:07:48;;;;;;;21.08;5.07;;;;;;;;;;2546894;23;20005;-92
2023/01/18 07:08:49;;;;;;;10.75;3.10;;;;;;;;;;2561646;23;19997;-93
2023/01/18 07:09:49;;;;;;;15.98;5.05;;;;;;;;;;2570863;23;20086;-92
2023/01/18 07:10:51;;;;;;;18.88;5.20;;;;;;;;;;2568501;23;19989;-93
2023/01/18 07:11:52;;;;;;;17.02;4.50;;;;;;;;;;2573291;23;20009;-92
2023/01/18 07:12:52;;;;;;;14.23;3.65;;;;;;;;;;2568307;23;20028;-93
2023/01/18 07:13:53;;;;;;;16.08;3.97;;;;;;;;;;2571700;23;20012;-92
2023/01/18 07:14:53;;;;;;;13.70;4.82;;;;;;;;;;2567103;23;20001;-93
2023/01/18 07:15:57;;;;;;;16.65;4.18;;;;;;;;;;2565643;23;19993;-92
2023/01/18 07:16:57;;;;;;;16.27;2.88;;;;;;;;;;2583432;23;20062;-93
2023/01/18 07:17:58;;;;;;;17.00;4.32;;;;;;;;;;2568090;23;20024;-93
2023/01/18 07:19:00;;;;;;;13.35;3.55;;;;;;;;;;2555626;23;20051;-89
2023/01/18 07:20:03;;;;;;;16.63;3.78;;;;;;;;;;2568273;23;20001;-92
2023/01/18 07:21:08;;;;;;;17.08;3.30;;;;;;;;;;2567089;23;20020;-94
2023/01/18 07:22:09;;;;;;;14.93;3.25;;;;;;;;;;2546938;23;20075;-93
2023/01/18 07:23:09;;;;;;;14.88;3.53;;;;;;;;;;2545230;23;20474;-93
2023/01/18 07:24:10;;;;;;;10.25;3.72;;;;;;;;;;2544832;23;19997;-94
2023/01/18 07:25:12;;;;;;;16.73;5.05;;;;;;;;;;2545568;23;20080;-92
2023/01/18 07:26:15;;;;;;;17.00;3.70;;;;;;;;;;2557659;23;20329;-94
2023/01/18 07:27:15;;;;;;;13.50;4.20;;;;;;;;;;2556883;23;20059;-93
2023/01/18 07:28:16;;;;;;;16.38;4.32;;;;;;;;;;2544812;23;20080;-92
2023/01/18 07:29:16;;;;;;;20.10;4.25;;;;;;;;;;2561290;23;20012;-92
2023/01/18 07:30:17;;;;;;;11.75;3.58;;;;;;;;;;2565695;23;19991;-92
2023/01/18 07:31:18;;;;;;;21.48;3.90;;;;;;;;;;2556098;23;19990;-94
2023/01/18 07:32:21;;;;;;;13.45;2.83;;;;;;;;;;2572901;23;20000;-91
2023/01/18 07:33:22;;;;;;;17.48;3.60;;;;;;;;;;2563951;23;20005;-93
2023/01/18 07:34:23;;;;;;;11.93;2.90;;;;;;;;;;2548515;23;20005;-93
2023/01/18 07:35:23;;;;;;;17.90;2.88;;;;;;;;;;2562645;23;20071;-92
2023/01/18 07:36:23;;;;;;;19.67;3.42;;;;;;;;;;2574864;23;20062;-93
2023/01/18 07:37:24;;;;;;;11.15;2.53;;;;;;;;;;2556895;23;20000;-92
2023/01/18 07:38:25;;;;;;;12.73;2.72;;;;;;;;;;2561684;23;20337;-93
2023/01/18 07:39:25;;;;;;;17.23;3.10;;;;;;;;;;2562647;23;20000;-93
2023/01/18 07:40:26;;;;;;;13.32;3.28;;;;;;;;;;2564746;23;20012;-93
2023/01/18 07:41:27;;;;;;;15.10;3.58;;;;;;;;;;2564349;23;20001;-94
2023/01/18 07:42:27;;;;;;;20.27;3.83;;;;;;;;;;2549272;23;20002;-93
2023/01/18 07:43:30;;;;;;;16.90;3.25;;;;;;;;;;2557624;23;19993;-93
2023/01/18 07:44:30;;;;;;;11.60;3.25;;;;;;;;;;2573469;23;19993;-92
2023/01/18 07:45:31;;;;;;;11.15;2.45;;;;;;;;;;2574611;23;20421;-91
2023/01/18 07:46:31;;;;;;;16.52;3.78;;;;;;;;;;2568946;23;20051;-95
2023/01/18 07:47:32;;;;;;;22.83;3.47;;;;;;;;;;2556998;23;20074;-92
2023/01/18 07:48:32;;;;;;;19.75;3.95;;;;;;;;;;2561513;23;20069;-94
2023/01/18 07:49:33;;;;;;;18.50;2.65;;;;;;;;;;2556646;23;19996;-92
2023/01/18 07:50:33;;;;;;;12.43;3.85;;;;;;;;;;2544123;23;20562;-92
2023/01/18 07:51:34;;;;;;;28.05;3.22;;;;;;;;;;2560779;23;20024;-92
2023/01/18 07:52:36;;;;;;;9.05;2.50;;;;;;;;;;2557000;23;19989;-92
2023/01/18 07:53:37;;;;;;;10.32;2.67;;;;;;;;;;2544780;23;20446;-93
2023/01/18 07:54:38;;;;;;;14.80;3.45;;;;;;;;;;2561262;23;19993;-93
2023/01/18 07:55:40;;;;;;;16.10;3.13;;;;;;;;;;2556962;23;19997;-94
2023/01/18 07:56:41;;;;;;;11.90;2.92;;;;;;;;;;2545020;23;20454;-93